Time;durP1;ratioP1;P1;durP2;ratioP2;P2;SDS_P1;SDS_P2;PMS_P1;PMS_P2;Temp;Humidity;BMP_temperature;BMP_pressure;BME280_temperature;BME280_humidity;BME280_pressure;Samples;Min_cycle;Max_cycle;Signal;HPM_P1;HPM_P2
2021/11/22 00:02:17;;;;;;;5.60;1.20;;;3.40;99.90;;;;;;5021935;28;20057;-66
2021/11/22 00:04:43;;;;;;;6.18;1.02;;;3.40;99.90;;;;;;4979580;28;20351;-65
2021/11/22 00:07:11;;;;;;;4.50;1.45;;;3.40;99.90;;;;;;5028123;28;20044;-65
2021/11/22 00:09:37;;;;;;;5.70;0.90;;;3.40;99.90;;;;;;5005016;28;20064;-65
2021/11/22 00:12:03;;;;;;;8.57;2.03;;;3.50;99.90;;;;;;5021451;28;20456;-66
2021/11/22 00:14:29;;;;;;;7.22;1.30;;;3.50;99.90;;;;;;5021959;28;20033;-66
2021/11/22 00:16:55;;;;;;;7.63;1.05;;;3.60;99.90;;;;;;5030051;28;20087;-66
2021/11/22 00:19:21;;;;;;;6.55;0.77;;;3.60;99.90;;;;;;5006725;28;20393;-66
2021/11/22 00:21:47;;;;;;;6.82;1.27;;;3.70;99.90;;;;;;5027229;28;20030;-66
2021/11/22 00:24:13;;;;;;;6.43;1.10;;;3.70;99.90;;;;;;5022399;28;20556;-66
2021/11/22 00:26:38;;;;;;;5.75;1.02;;;3.60;99.90;;;;;;5011673;28;20514;-66
2021/11/22 00:29:04;;;;;;;3.25;0.88;;;3.60;99.90;;;;;;5022152;28;20045;-66
2021/11/22 00:31:30;;;;;;;4.88;0.80;;;3.60;99.90;;;;;;5026077;28;20033;-66
2021/11/22 00:33:56;;;;;;;5.88;0.90;;;3.50;99.90;;;;;;5029406;28;20037;-66
2021/11/22 00:36:22;;;;;;;8.30;1.00;;;3.50;99.90;;;;;;4987935;28;20045;-65
2021/11/22 00:38:48;;;;;;;6.70;1.17;;;3.50;99.90;;;;;;5025376;28;20128;-66
2021/11/22 00:41:14;;;;;;;5.85;1.15;;;3.40;99.90;;;;;;5024738;28;20034;-66
2021/11/22 00:43:40;;;;;;;6.90;1.50;;;3.40;99.90;;;;;;5027577;28;20037;-66
2021/11/22 00:46:07;;;;;;;7.50;1.30;;;3.30;99.90;;;;;;5024953;28;20128;-66
2021/11/22 00:48:35;;;;;;;5.93;1.20;;;3.30;99.90;;;;;;5010948;28;20336;-66
2021/11/22 00:51:01;;;;;;;2.72;1.30;;;3.20;99.90;;;;;;5022945;28;22886;-66
2021/11/22 00:53:29;;;;;;;4.25;1.08;;;3.10;99.90;;;;;;5026916;28;20068;-65
2021/11/22 00:55:55;;;;;;;5.68;1.00;;;3.10;99.90;;;;;;5021044;28;20183;-66
2021/11/22 00:58:21;;;;;;;4.38;1.13;;;3.00;99.90;;;;;;5029994;28;20102;-66
2021/11/22 01:00:46;;;;;;;3.15;1.08;;;2.90;99.90;;;;;;5021797;28;20026;-65
2021/11/22 01:03:12;;;;;;;5.72;1.10;;;2.80;99.90;;;;;;5010054;28;20088;-65
2021/11/22 01:05:38;;;;;;;5.88;1.13;;;2.80;99.90;;;;;;5022331;28;20030;-65
2021/11/22 01:08:04;;;;;;;6.15;1.05;;;2.80;99.90;;;;;;5024834;28;20124;-65
2021/11/22 01:10:31;;;;;;;7.57;1.40;;;2.80;99.90;;;;;;5027924;28;20041;-65
2021/11/22 01:12:57;;;;;;;4.97;0.85;;;2.80;99.90;;;;;;5005973;28;20054;-65
2021/11/22 01:15:24;;;;;;;5.75;0.95;;;2.80;99.90;;;;;;5027394;28;20034;-65
2021/11/22 01:17:52;;;;;;;8.07;1.52;;;2.90;99.90;;;;;;5025060;28;20044;-65
2021/11/22 01:20:28;;;;;;;7.28;1.10;;;2.90;99.90;;;;;;5025199;28;20029;-65
2021/11/22 01:22:54;;;;;;;4.47;1.35;;;2.90;99.90;;;;;;5004679;28;20103;-65
2021/11/22 01:25:21;;;;;;;3.70;1.00;;;2.90;99.90;;;;;;5030160;28;20071;-66
2021/11/22 01:27:49;;;;;;;10.13;2.30;;;2.90;99.90;;;;;;5020876;28;20049;-66
2021/11/22 01:30:15;;;;;;;6.78;2.03;;;2.80;99.90;;;;;;5011549;28;20060;-65
2021/11/22 01:32:43;;;;;;;7.00;2.42;;;2.80;99.90;;;;;;5022090;28;20037;-65
2021/11/22 01:35:10;;;;;;;9.50;3.03;;;2.80;99.90;;;;;;4995264;28;20038;-65
2021/11/22 01:37:36;;;;;;;5.22;2.35;;;2.70;99.90;;;;;;5002406;28;20049;-65
2021/11/22 01:40:03;;;;;;;6.47;2.47;;;2.70;99.90;;;;;;5028083;28;20111;-65
2021/11/22 01:42:29;;;;;;;5.43;1.90;;;2.60;99.90;;;;;;5020582;28;20045;-65
2021/11/22 01:44:55;;;;;;;7.35;2.05;;;2.60;99.90;;;;;;5026859;28;20052;-65
2021/11/22 01:47:21;;;;;;;3.78;1.05;;;2.60;99.90;;;;;;5021742;28;22720;-65
2021/11/22 01:49:47;;;;;;;8.75;1.20;;;2.50;99.90;;;;;;5008049;28;20056;-66
2021/11/22 01:52:12;;;;;;;6.07;1.45;;;2.50;99.90;;;;;;5009611;28;20034;-66
2021/11/22 01:54:38;;;;;;;6.72;2.33;;;2.50;99.90;;;;;;5025155;28;20497;-65
2021/11/22 01:57:04;;;;;;;5.20;1.13;;;2.50;99.90;;;;;;5021364;28;20040;-65
2021/11/22 01:59:30;;;;;;;7.70;1.00;;;2.50;99.90;;;;;;5022275;28;20064;-65
2021/11/22 02:01:56;;;;;;;6.25;1.00;;;2.40;99.90;;;;;;4996547;28;20142;-65
2021/11/22 02:04:21;;;;;;;5.22;1.15;;;2.40;99.90;;;;;;5018622;28;20081;-65
2021/11/22 02:06:49;;;;;;;4.40;1.08;;;2.40;99.90;;;;;;5027459;28;20111;-65
2021/11/22 02:09:15;;;;;;;4.97;1.05;;;2.30;99.90;;;;;;5021925;28;20045;-65
2021/11/22 02:11:41;;;;;;;5.95;0.85;;;2.30;99.90;;;;;;5028337;28;20037;-65
2021/11/22 02:14:07;;;;;;;2.83;0.80;;;2.30;99.90;;;;;;5019142;28;20037;-65
2021/11/22 02:16:34;;;;;;;2.30;0.80;;;2.30;99.90;;;;;;5027224;28;20565;-65
2021/11/22 02:19:03;;;;;;;2.72;0.70;;;2.40;99.90;;;;;;5023681;28;20120;-65
2021/11/22 02:21:30;;;;;;;7.28;1.00;;;2.40;99.90;;;;;;5008430;28;20049;-65
2021/11/22 02:23:56;;;;;;;6.10;1.20;;;2.40;99.90;;;;;;5018197;28;20072;-65
2021/11/22 02:26:22;;;;;;;2.58;0.90;;;2.40;99.90;;;;;;5010491;28;20049;-65
2021/11/22 02:28:48;;;;;;;7.90;1.00;;;2.40;99.90;;;;;;5003558;28;20478;-65
2021/11/22 02:31:13;;;;;;;4.75;0.70;;;2.40;99.90;;;;;;5025575;28;20574;-65
2021/11/22 02:33:40;;;;;;;5.07;0.68;;;2.30;99.90;;;;;;5011577;28;20051;-65
2021/11/22 02:36:05;;;;;;;3.17;0.70;;;2.30;99.90;;;;;;5021681;28;20129;-65
2021/11/22 02:38:33;;;;;;;7.63;1.10;;;2.20;99.90;;;;;;5009161;28;20120;-65
2021/11/22 02:41:01;;;;;;;5.82;1.30;;;2.20;99.90;;;;;;5003291;28;20037;-65
2021/11/22 02:43:29;;;;;;;4.35;0.98;;;2.10;99.90;;;;;;5024326;28;20037;-65
2021/11/22 02:45:55;;;;;;;8.43;1.50;;;2.20;99.90;;;;;;5004364;28;20089;-65
2021/11/22 02:48:21;;;;;;;6.75;0.93;;;2.20;99.90;;;;;;5024915;28;20386;-65
2021/11/22 02:50:47;;;;;;;4.30;0.88;;;2.30;99.90;;;;;;5021928;28;20037;-65
2021/11/22 02:53:13;;;;;;;6.00;0.90;;;2.30;99.90;;;;;;5024736;28;20052;-65
2021/11/22 02:55:39;;;;;;;5.43;1.05;;;2.30;99.90;;;;;;5020584;28;20065;-65
2021/11/22 02:58:05;;;;;;;3.65;0.70;;;2.30;99.90;;;;;;5024044;28;20751;-65
2021/11/22 03:00:33;;;;;;;4.03;0.98;;;2.20;99.90;;;;;;5023324;28;20030;-65
2021/11/22 03:02:59;;;;;;;6.43;1.05;;;2.20;99.90;;;;;;5008774;28;20198;-65
2021/11/22 03:05:25;;;;;;;3.72;0.75;;;2.20;99.90;;;;;;4987173;28;20120;-65
2021/11/22 03:07:54;;;;;;;4.78;0.60;;;2.20;99.90;;;;;;5024869;28;20479;-65
2021/11/22 03:10:22;;;;;;;4.15;0.80;;;2.20;99.90;;;;;;5019699;28;20045;-66
2021/11/22 03:12:49;;;;;;;3.03;0.70;;;2.20;99.90;;;;;;5026612;28;20120;-65
2021/11/22 03:15:17;;;;;;;6.80;1.73;;;2.30;99.90;;;;;;5021197;28;20030;-65
2021/11/22 03:17:43;;;;;;;5.00;1.20;;;2.20;99.90;;;;;;5003626;28;20037;-65
2021/11/22 03:20:12;;;;;;;4.32;0.52;;;2.20;99.90;;;;;;5027260;28;20508;-65
2021/11/22 03:22:38;;;;;;;3.72;0.70;;;2.30;99.90;;;;;;5019034;28;20037;-65
2021/11/22 03:25:06;;;;;;;6.97;0.90;;;2.30;99.90;;;;;;5006864;28;20539;-65
2021/11/22 03:27:32;;;;;;;4.72;0.80;;;2.30;99.90;;;;;;5020458;28;20471;-66
2021/11/22 03:29:58;;;;;;;4.50;0.70;;;2.30;99.90;;;;;;5009176;28;20119;-66
2021/11/22 03:32:24;;;;;;;5.78;0.85;;;2.20;99.90;;;;;;5017294;28;20517;-66
2021/11/22 03:34:49;;;;;;;6.25;1.00;;;2.30;99.90;;;;;;5024706;28;20078;-66
2021/11/22 03:37:15;;;;;;;5.15;1.05;;;2.20;99.90;;;;;;5019719;28;20033;-66
2021/11/22 03:39:46;;;;;;;1.92;0.80;;;2.20;99.90;;;;;;5026350;28;20034;-66
2021/11/22 03:42:16;;;;;;;2.53;0.60;;;2.20;99.90;;;;;;5019494;28;20052;-66
2021/11/22 03:44:42;;;;;;;7.03;1.02;;;2.10;99.90;;;;;;5025786;28;20041;-66
2021/11/22 03:47:08;;;;;;;6.20;1.02;;;2.10;99.90;;;;;;5017348;28;20057;-66
2021/11/22 03:49:34;;;;;;;4.88;0.73;;;2.10;99.90;;;;;;5025317;28;20045;-66
2021/11/22 03:52:02;;;;;;;8.02;0.90;;;2.10;99.90;;;;;;5025666;28;20112;-66
2021/11/22 03:54:28;;;;;;;6.80;0.80;;;2.10;99.90;;;;;;5013734;28;20092;-66
2021/11/22 03:56:54;;;;;;;3.45;0.50;;;2.10;99.90;;;;;;5025146;28;20068;-66
2021/11/22 03:59:19;;;;;;;5.65;0.60;;;2.10;99.90;;;;;;5026559;28;20643;-66
2021/11/22 04:01:45;;;;;;;2.53;0.70;;;2.10;99.90;;;;;;5031970;28;20042;-66
2021/11/22 04:04:11;;;;;;;4.65;0.70;;;2.00;99.90;;;;;;5021816;28;20041;-66
2021/11/22 04:06:37;;;;;;;2.83;0.70;;;1.90;99.90;;;;;;5026866;28;20037;-66
2021/11/22 04:09:04;;;;;;;7.38;0.70;;;1.80;99.90;;;;;;5025195;28;20041;-66
2021/11/22 04:11:30;;;;;;;1.90;0.40;;;1.80;99.90;;;;;;4992542;28;20521;-66
2021/11/22 04:13:56;;;;;;;2.70;0.50;;;1.70;99.90;;;;;;5023608;28;20050;-66
2021/11/22 04:16:22;;;;;;;1.13;0.45;;;1.70;99.90;;;;;;5011386;28;20045;-66
2021/11/22 04:18:49;;;;;;;4.82;0.60;;;1.60;99.90;;;;;;5026354;28;20037;-66
2021/11/22 04:21:18;;;;;;;2.08;0.40;;;1.50;99.90;;;;;;5027546;28;20061;-66
2021/11/22 04:23:44;;;;;;;2.88;0.40;;;1.50;99.90;;;;;;5003948;28;20037;-66
2021/11/22 04:26:11;;;;;;;2.85;0.60;;;1.40;99.90;;;;;;5026227;28;20041;-66
2021/11/22 04:28:37;;;;;;;2.67;0.52;;;1.40;99.90;;;;;;5005737;28;20125;-66
2021/11/22 04:31:03;;;;;;;3.15;0.43;;;1.40;99.90;;;;;;5030094;28;20075;-66
2021/11/22 04:33:29;;;;;;;5.85;0.40;;;1.30;99.90;;;;;;5005840;28;20046;-66
2021/11/22 04:35:55;;;;;;;3.35;0.60;;;1.30;99.90;;;;;;5028681;28;20489;-66
2021/11/22 04:38:21;;;;;;;3.97;0.80;;;1.20;99.90;;;;;;5029972;28;20421;-66
2021/11/22 04:40:47;;;;;;;3.35;0.70;;;1.20;99.90;;;;;;5019998;28;20029;-66
2021/11/22 04:43:12;;;;;;;4.53;0.60;;;1.20;99.90;;;;;;5027823;28;20072;-66
2021/11/22 04:45:38;;;;;;;3.28;0.57;;;1.20;99.90;;;;;;5003722;28;20072;-66
2021/11/22 04:48:05;;;;;;;2.45;0.70;;;1.10;99.90;;;;;;5025961;28;20047;-66
2021/11/22 04:50:32;;;;;;;3.63;0.55;;;1.10;99.90;;;;;;5004353;28;20122;-66
2021/11/22 04:52:59;;;;;;;3.10;0.43;;;1.10;99.90;;;;;;5029291;28;20044;-66
2021/11/22 04:55:25;;;;;;;4.05;0.90;;;1.10;99.90;;;;;;5023772;28;20110;-66
2021/11/22 04:57:52;;;;;;;4.80;0.60;;;1.00;99.90;;;;;;5008869;28;20044;-66
2021/11/22 05:00:20;;;;;;;3.10;0.82;;;1.00;99.90;;;;;;5006758;28;20051;-66
2021/11/22 05:02:46;;;;;;;2.13;0.50;;;1.00;99.90;;;;;;5009454;28;20057;-66
2021/11/22 05:05:13;;;;;;;2.03;0.52;;;1.00;99.90;;;;;;5021739;28;20040;-67
2021/11/22 05:07:40;;;;;;;6.25;0.90;;;1.00;99.90;;;;;;5028251;28;20033;-67
2021/11/22 05:10:07;;;;;;;1.60;0.47;;;1.00;99.90;;;;;;5007769;28;20067;-67
2021/11/22 05:12:33;;;;;;;2.08;0.50;;;1.00;99.90;;;;;;5011376;28;20049;-67
2021/11/22 05:14:59;;;;;;;6.03;0.82;;;0.90;99.90;;;;;;5008600;28;20040;-67
2021/11/22 05:17:25;;;;;;;3.08;0.70;;;0.80;99.90;;;;;;5003543;28;20427;-67
2021/11/22 05:19:51;;;;;;;2.20;0.50;;;0.80;99.90;;;;;;5004425;28;20062;-67
2021/11/22 05:22:21;;;;;;;3.10;0.60;;;0.80;99.90;;;;;;5001687;28;20099;-67
2021/11/22 05:24:49;;;;;;;4.97;1.00;;;0.80;99.90;;;;;;5026686;28;20045;-67
2021/11/22 05:27:26;;;;;;;3.00;0.60;;;0.70;99.90;;;;;;5004878;28;20041;-67
2021/11/22 05:29:52;;;;;;;5.00;0.85;;;0.80;99.90;;;;;;5028308;28;20478;-67
2021/11/22 05:32:18;;;;;;;6.32;0.70;;;0.70;99.90;;;;;;5023138;28;20124;-67
2021/11/22 05:34:46;;;;;;;5.28;0.88;;;0.70;99.90;;;;;;5026101;28;20038;-67
2021/11/22 05:37:12;;;;;;;2.88;0.60;;;0.70;99.90;;;;;;5001575;28;20111;-67
2021/11/22 05:39:38;;;;;;;4.25;0.85;;;0.70;99.90;;;;;;5031650;28;20065;-67
2021/11/22 05:42:04;;;;;;;6.18;0.80;;;0.70;99.90;;;;;;5018596;28;20658;-67
2021/11/22 05:44:33;;;;;;;4.78;0.73;;;0.70;99.90;;;;;;5009063;28;20428;-67
2021/11/22 05:47:04;;;;;;;1.85;0.60;;;0.60;99.90;;;;;;4998496;28;20059;-67
2021/11/22 05:49:32;;;;;;;3.60;0.88;;;0.60;99.90;;;;;;5009326;28;20179;-67
2021/11/22 05:51:58;;;;;;;10.77;1.10;;;0.50;99.90;;;;;;5000870;28;20148;-67
2021/11/22 05:54:25;;;;;;;4.95;0.93;;;0.60;99.90;;;;;;5009261;28;20097;-67
2021/11/22 05:56:52;;;;;;;6.22;0.80;;;0.60;99.90;;;;;;5001528;28;20053;-67
2021/11/22 05:59:19;;;;;;;2.72;0.65;;;0.60;99.90;;;;;;5006014;28;20068;-67
2021/11/22 06:01:44;;;;;;;2.97;0.70;;;0.60;99.90;;;;;;5007012;28;20351;-67
2021/11/22 06:04:10;;;;;;;4.25;0.80;;;0.60;99.90;;;;;;5006006;28;20053;-67
2021/11/22 06:06:36;;;;;;;3.53;0.68;;;0.50;99.90;;;;;;5004483;28;20118;-67
2021/11/22 06:09:03;;;;;;;3.30;0.65;;;0.50;99.90;;;;;;4994817;28;20120;-67
2021/11/22 06:11:29;;;;;;;1.60;0.60;;;0.50;99.90;;;;;;5005036;28;20070;-67
2021/11/22 06:13:55;;;;;;;3.63;0.80;;;0.50;99.90;;;;;;5003671;28;20037;-67
2021/11/22 06:16:21;;;;;;;3.40;0.93;;;0.40;99.90;;;;;;5004220;28;20046;-67
2021/11/22 06:18:46;;;;;;;3.33;0.65;;;0.40;99.90;;;;;;5001263;28;20104;-67
2021/11/22 06:21:12;;;;;;;3.15;0.88;;;0.30;99.90;;;;;;4989769;28;20046;-67
2021/11/22 06:23:38;;;;;;;2.90;0.57;;;0.40;99.90;;;;;;4997730;28;20042;-67
2021/11/22 06:26:04;;;;;;;4.13;0.80;;;0.40;99.90;;;;;;5003262;28;20457;-67
2021/11/22 06:28:29;;;;;;;4.47;1.00;;;0.30;99.90;;;;;;4999137;28;20042;-67
2021/11/22 06:30:55;;;;;;;1.35;0.63;;;0.30;99.90;;;;;;5008287;28;20049;-67
2021/11/22 06:33:21;;;;;;;4.10;0.80;;;0.30;99.90;;;;;;5000656;28;20457;-67
2021/11/22 06:35:46;;;;;;;1.75;0.63;;;0.30;99.90;;;;;;5003577;28;20046;-67
2021/11/22 06:38:13;;;;;;;4.30;0.65;;;0.20;99.90;;;;;;5006418;28;20030;-67
2021/11/22 06:40:40;;;;;;;3.90;0.85;;;0.30;99.90;;;;;;5000189;28;20049;-67
2021/11/22 06:43:06;;;;;;;6.25;0.85;;;0.20;99.90;;;;;;5003907;28;20157;-67
2021/11/22 06:45:32;;;;;;;6.43;1.00;;;0.20;99.90;;;;;;5001888;28;20125;-67
2021/11/22 06:47:58;;;;;;;5.25;0.90;;;0.20;99.90;;;;;;5027574;28;20057;-67
2021/11/22 06:50:24;;;;;;;3.10;0.82;;;0.20;99.90;;;;;;5019598;28;20151;-67
2021/11/22 06:52:50;;;;;;;5.35;0.90;;;0.20;99.90;;;;;;5005913;28;20137;-67
2021/11/22 06:55:17;;;;;;;1.77;0.63;;;0.30;99.90;;;;;;5005421;28;20049;-67
2021/11/22 06:57:42;;;;;;;5.18;1.00;;;0.30;99.90;;;;;;5025531;28;20033;-67
2021/11/22 07:00:11;;;;;;;1.55;0.70;;;0.20;99.90;;;;;;4983278;28;20045;-67
2021/11/22 07:02:37;;;;;;;6.18;0.88;;;0.20;99.90;;;;;;5010963;28;20425;-67
2021/11/22 07:05:04;;;;;;;5.28;1.10;;;0.20;99.90;;;;;;5001181;28;20485;-67
2021/11/22 07:07:30;;;;;;;2.75;0.80;;;0.20;99.90;;;;;;5023797;28;20193;-67
2021/11/22 07:09:56;;;;;;;2.85;0.88;;;0.20;99.90;;;;;;5004345;28;20128;-67
2021/11/22 07:12:22;;;;;;;2.55;0.88;;;0.10;99.90;;;;;;5027513;28;20033;-67
2021/11/22 07:14:48;;;;;;;4.82;0.90;;;0.10;99.90;;;;;;5002786;28;20152;-67
2021/11/22 07:17:14;;;;;;;2.67;0.95;;;0.20;99.90;;;;;;5004528;28;20053;-67
2021/11/22 07:19:41;;;;;;;2.83;1.15;;;0.10;99.90;;;;;;5026528;28;20041;-67
2021/11/22 07:22:09;;;;;;;3.35;1.00;;;0.10;99.90;;;;;;5022647;28;20030;-67
2021/11/22 07:24:36;;;;;;;3.95;0.80;;;0.10;99.90;;;;;;5004166;28;20457;-67
2021/11/22 07:27:03;;;;;;;4.20;0.77;;;0.00;99.90;;;;;;5001597;28;20060;-67
2021/11/22 07:29:28;;;;;;;5.18;1.05;;;0.00;99.90;;;;;;5007716;28;20056;-67
2021/11/22 07:31:54;;;;;;;2.65;0.95;;;0.10;99.90;;;;;;5020764;28;20046;-67
2021/11/22 07:34:20;;;;;;;7.03;1.23;;;0.00;99.90;;;;;;5025413;28;20120;-67
2021/11/22 07:36:46;;;;;;;2.95;1.10;;;0.10;99.90;;;;;;5018402;28;20060;-66
2021/11/22 07:39:12;;;;;;;3.50;1.15;;;0.10;99.90;;;;;;5025813;28;20394;-67
2021/11/22 07:41:39;;;;;;;5.22;1.55;;;0.10;99.90;;;;;;5001589;28;20060;-68
2021/11/22 07:44:05;;;;;;;3.85;1.55;;;0.10;99.90;;;;;;5007848;28;20052;-67
2021/11/22 07:46:31;;;;;;;5.88;2.35;;;0.10;99.90;;;;;;5018610;28;20049;-67
2021/11/22 07:48:56;;;;;;;2.83;1.38;;;0.10;99.90;;;;;;5026997;28;20041;-66
2021/11/22 07:51:23;;;;;;;2.30;1.55;;;0.10;99.90;;;;;;5021575;28;20579;-66
2021/11/22 07:53:48;;;;;;;5.40;2.10;;;0.10;99.90;;;;;;5008738;28;20069;-66
2021/11/22 07:56:14;;;;;;;4.93;1.90;;;0.20;99.90;;;;;;5029261;28;20033;-66
2021/11/22 07:58:40;;;;;;;4.72;1.75;;;0.20;99.90;;;;;;5017645;28;20042;-66
2021/11/22 08:01:06;;;;;;;4.63;1.85;;;0.30;99.90;;;;;;4993663;28;20053;-67
2021/11/22 08:03:32;;;;;;;8.02;2.10;;;0.30;99.90;;;;;;5004217;28;20088;-67
2021/11/22 08:05:59;;;;;;;5.47;1.63;;;0.50;99.90;;;;;;5029015;28;20042;-67
2021/11/22 08:08:27;;;;;;;4.53;1.80;;;0.50;99.90;;;;;;5022810;28;20033;-67
2021/11/22 08:13:38;;;;;;;3.92;1.20;;;0.60;99.90;;;;;;5016676;28;20102;-67
2021/11/22 08:16:05;;;;;;;2.78;1.35;;;0.60;99.90;;;;;;5007810;28;20045;-67
2021/11/22 08:18:31;;;;;;;4.07;1.58;;;0.70;99.90;;;;;;5022024;28;20565;-67
2021/11/22 08:20:58;;;;;;;2.10;1.40;;;0.80;99.90;;;;;;5025130;28;20065;-67
2021/11/22 08:23:24;;;;;;;6.47;1.30;;;0.80;99.90;;;;;;5024462;28;20481;-67
2021/11/22 08:25:50;;;;;;;6.78;1.60;;;0.90;99.90;;;;;;5006029;28;20104;-67
2021/11/22 08:28:17;;;;;;;6.95;1.30;;;1.00;99.90;;;;;;4998607;28;20054;-67
2021/11/22 08:30:43;;;;;;;4.75;1.23;;;1.00;99.90;;;;;;5023907;28;20437;-67
2021/11/22 08:33:14;;;;;;;4.40;1.25;;;1.10;99.90;;;;;;5005073;28;20405;-67
2021/11/22 08:35:44;;;;;;;6.35;1.33;;;1.20;99.90;;;;;;5025828;28;20482;-67
2021/11/22 08:38:11;;;;;;;4.50;1.15;;;1.30;99.90;;;;;;5024399;28;20132;-67
2021/11/22 08:40:40;;;;;;;4.28;1.52;;;1.40;99.90;;;;;;5029363;28;20046;-67
2021/11/22 08:43:07;;;;;;;7.22;1.70;;;1.50;99.90;;;;;;5023483;28;20053;-67
2021/11/22 08:45:33;;;;;;;8.43;1.90;;;1.70;99.90;;;;;;5030472;28;20046;-67
2021/11/22 08:47:59;;;;;;;7.00;1.42;;;1.80;99.90;;;;;;5027556;28;20054;-67
2021/11/22 08:50:25;;;;;;;6.07;1.45;;;1.80;99.90;;;;;;5009066;28;20078;-67
2021/11/22 08:52:50;;;;;;;5.78;1.98;;;1.90;99.90;;;;;;5032891;28;20037;-67
2021/11/22 08:55:18;;;;;;;4.30;1.58;;;2.00;99.90;;;;;;5005023;28;20048;-67
2021/11/22 08:57:44;;;;;;;5.63;1.50;;;2.00;99.90;;;;;;5024795;28;20475;-67
2021/11/22 09:00:13;;;;;;;9.77;1.60;;;2.10;99.90;;;;;;5026745;28;20029;-67
2021/11/22 09:02:39;;;;;;;4.03;1.10;;;2.10;99.90;;;;;;5028801;28;20041;-67
2021/11/22 09:05:05;;;;;;;3.90;1.55;;;2.20;99.90;;;;;;4997119;28;20409;-67
2021/11/22 09:07:31;;;;;;;7.30;2.30;;;2.20;99.90;;;;;;5013122;28;20447;-67
2021/11/22 09:09:57;;;;;;;5.60;1.50;;;2.30;99.90;;;;;;5004946;28;20081;-67
2021/11/22 09:12:22;;;;;;;4.95;1.60;;;2.40;99.90;;;;;;5012310;28;20381;-67
2021/11/22 09:14:49;;;;;;;9.02;2.65;;;2.40;99.90;;;;;;5024494;28;20041;-67
2021/11/22 09:17:17;;;;;;;8.50;1.90;;;2.50;99.90;;;;;;5011166;28;20129;-66
2021/11/22 09:19:43;;;;;;;5.80;1.92;;;2.50;99.90;;;;;;5024320;28;20053;-66
2021/11/22 09:22:12;;;;;;;5.68;2.15;;;2.60;99.90;;;;;;5012176;28;20033;-66
2021/11/22 09:24:42;;;;;;;10.07;2.72;;;2.70;99.90;;;;;;5021403;28;20030;-66
2021/11/22 09:27:08;;;;;;;7.05;3.22;;;2.80;99.90;;;;;;5026605;28;20181;-66
2021/11/22 09:29:35;;;;;;;7.20;2.85;;;3.00;99.90;;;;;;5027664;28;20529;-66
2021/11/22 09:32:00;;;;;;;6.50;2.17;;;3.20;99.90;;;;;;5020600;28;20095;-66
2021/11/22 09:34:26;;;;;;;6.68;1.73;;;3.40;99.90;;;;;;5010882;28;20034;-66
2021/11/22 09:36:52;;;;;;;6.80;1.60;;;3.60;99.90;;;;;;5021279;28;20048;-66
2021/11/22 09:39:19;;;;;;;5.15;2.30;;;3.70;99.90;;;;;;5027398;28;20045;-66
2021/11/22 09:41:47;;;;;;;6.47;2.42;;;3.70;99.90;;;;;;5005762;28;20127;-66
2021/11/22 09:44:15;;;;;;;3.58;1.10;;;3.80;99.90;;;;;;5026300;28;20038;-66
2021/11/22 09:46:41;;;;;;;6.78;1.60;;;3.90;99.90;;;;;;5020053;28;20060;-66
2021/11/22 09:49:07;;;;;;;2.80;1.73;;;3.90;99.90;;;;;;5023639;28;20054;-66
2021/11/22 09:51:33;;;;;;;3.10;1.38;;;4.10;99.90;;;;;;5024824;28;20438;-66
2021/11/22 09:53:59;;;;;;;6.88;1.20;;;4.20;99.90;;;;;;5024915;28;20044;-66
2021/11/22 09:56:26;;;;;;;6.93;1.27;;;4.20;99.90;;;;;;5022626;28;20490;-66
2021/11/22 09:58:52;;;;;;;2.88;0.90;;;4.30;99.90;;;;;;5009196;28;20072;-66
2021/11/22 10:01:18;;;;;;;7.25;1.25;;;4.40;99.90;;;;;;5022523;28;20363;-66
2021/11/22 10:04:14;;;;;;;6.30;1.02;;;4.40;99.90;;;;;;5009866;28;20033;-66
2021/11/22 10:07:01;;;;;;;6.82;1.77;;;4.50;99.90;;;;;;4990121;28;20064;-65
2021/11/22 10:09:33;;;;;;;5.95;1.13;;;4.60;99.90;;;;;;4999060;28;20497;-65
2021/11/22 10:12:06;;;;;;;5.10;1.33;;;4.70;99.90;;;;;;5020505;28;20112;-65
2021/11/22 10:14:38;;;;;;;4.05;1.17;;;4.70;99.90;;;;;;5011895;28;20053;-65
2021/11/22 10:17:33;;;;;;;4.88;1.15;;;4.70;99.90;;;;;;5019166;28;20384;-65
2021/11/22 10:20:05;;;;;;;;;;;4.70;99.90;;;;;;5009461;28;20054;-65
2021/11/22 10:23:03;;;;;;;3.85;1.02;;;4.80;99.90;;;;;;5001387;28;19950;-65
2021/11/22 10:25:37;;;;;;;4.90;1.30;;;4.90;99.90;;;;;;5027935;28;20064;-65
2021/11/22 10:28:08;;;;;;;3.63;1.25;;;5.00;99.90;;;;;;5005714;28;20053;-65
2021/11/22 10:30:38;;;;;;;2.33;1.00;;;5.10;99.90;;;;;;5026330;28;20037;-66
2021/11/22 10:33:06;;;;;;;5.22;1.17;;;5.20;99.90;;;;;;5019910;28;20112;-66
2021/11/22 10:35:33;;;;;;;4.05;1.63;;;5.20;99.90;;;;;;5028579;28;20041;-66
2021/11/22 10:38:27;;;;;;;6.15;1.20;;;5.20;99.90;;;;;;5002212;28;20045;-66
2021/11/22 10:41:00;;;;;;;4.43;0.77;;;5.30;99.90;;;;;;5017979;28;20049;-64
2021/11/22 10:43:49;;;;;;;3.75;1.13;;;5.40;99.90;;;;;;5001527;28;20049;-64
2021/11/22 10:46:15;;;;;;;5.93;1.13;;;5.40;99.90;;;;;;5007956;28;20057;-64
2021/11/22 10:48:47;;;;;;;2.65;0.80;;;5.50;99.90;;;;;;5005808;28;20120;-64
2021/11/22 10:51:27;;;;;;;4.28;0.90;;;5.50;99.90;;;;;;5024198;28;20518;-64
2021/11/22 10:54:03;;;;;;;3.15;0.77;;;5.50;99.90;;;;;;5019443;28;20049;-64
2021/11/22 10:56:40;;;;;;;3.97;1.33;;;5.60;99.90;;;;;;5024555;28;20041;-64
2021/11/22 10:59:09;;;;;;;3.38;0.98;;;5.70;99.90;;;;;;5016759;28;20113;-65
2021/11/22 11:01:46;;;;;;;4.20;0.95;;;5.70;99.90;;;;;;5028849;28;20049;-65
2021/11/22 11:04:34;;;;;;;3.60;0.90;;;5.70;99.90;;;;;;4997436;28;20722;-65
2021/11/22 11:07:08;;;;;;;5.10;0.90;;;5.80;99.90;;;;;;5023424;28;20037;-65
2021/11/22 11:09:36;;;;;;;2.83;0.77;;;5.80;99.90;;;;;;5021126;28;20033;-65
2021/11/22 11:12:10;;;;;;;2.92;1.02;;;5.80;99.90;;;;;;5006539;28;20306;-65
2021/11/22 11:14:40;;;;;;;5.70;1.30;;;5.90;99.90;;;;;;5014582;28;20049;-65
2021/11/22 11:17:16;;;;;;;4.50;0.75;;;6.00;99.90;;;;;;5022485;28;20057;-65
2021/11/22 11:19:42;;;;;;;4.47;0.73;;;6.00;99.90;;;;;;5021337;28;20116;-66
2021/11/22 11:22:09;;;;;;;2.83;0.68;;;6.10;99.90;;;;;;5022494;28;20064;-65
2021/11/22 11:24:35;;;;;;;4.15;0.82;;;6.10;99.90;;;;;;5021761;28;20037;-65
2021/11/22 11:27:02;;;;;;;4.45;0.65;;;6.10;99.90;;;;;;5026174;28;20048;-66
2021/11/22 11:29:28;;;;;;;5.85;0.70;;;6.20;99.90;;;;;;5024051;28;20180;-65
2021/11/22 11:31:55;;;;;;;3.60;0.75;;;6.20;99.90;;;;;;5003297;28;20140;-65
2021/11/22 11:34:20;;;;;;;3.00;0.60;;;6.20;99.90;;;;;;5026994;28;20042;-65
2021/11/22 11:37:18;;;;;;;3.13;0.70;;;6.30;99.90;;;;;;5021663;28;20042;-65
2021/11/22 11:40:02;;;;;;;5.32;0.63;;;6.30;99.90;;;;;;5026093;28;20482;-65
2021/11/22 11:42:57;;;;;;;4.22;0.63;;;6.20;99.90;;;;;;5022340;28;20523;-65
2021/11/22 11:45:42;;;;;;;2.17;0.50;;;6.30;99.90;;;;;;5005879;28;20043;-65
2021/11/22 11:48:44;;;;;;;4.45;0.50;;;6.30;99.90;;;;;;5022763;28;20038;-65
2021/11/22 11:51:13;;;;;;;2.65;0.70;;;6.30;99.90;;;;;;4992917;28;20124;-65
2021/11/22 11:54:08;;;;;;;4.57;0.60;;;6.30;99.90;;;;;;5028678;28;20057;-65
2021/11/22 11:56:51;;;;;;;6.30;0.60;;;6.30;99.90;;;;;;5020628;28;20148;-65
2021/11/22 11:59:42;;;;;;;4.07;0.73;;;6.40;99.90;;;;;;5024237;28;20102;-65
2021/11/22 12:02:08;;;;;;;3.25;0.60;;;6.40;99.90;;;;;;5014075;28;20429;-65
2021/11/22 12:04:49;;;;;;;1.80;0.30;;;6.40;99.90;;;;;;5026752;28;20124;-65
2021/11/22 12:07:42;;;;;;;4.15;0.60;;;6.40;99.90;;;;;;5021129;28;20517;-65
2021/11/22 12:10:11;;;;;;;3.28;0.57;;;6.40;99.90;;;;;;5027360;28;20124;-65
2021/11/22 12:12:41;;;;;;;10.18;5.32;;;6.50;99.90;;;;;;5017549;28;20401;-65
2021/11/22 12:15:15;;;;;;;2.90;1.15;;;6.50;99.90;;;;;;5028436;28;20293;-65
2021/11/22 12:17:41;;;;;;;6.23;0.70;;;6.50;99.90;;;;;;5002802;28;20053;-65
2021/11/22 12:20:21;;;;;;;2.58;0.40;;;6.50;99.90;;;;;;5008709;28;20629;-65
2021/11/22 12:22:54;;;;;;;2.75;0.40;;;6.50;99.90;;;;;;5015956;28;20050;-66
2021/11/22 12:28:18;;;;;;;3.03;0.30;;;6.60;99.90;;;;;;5024507;28;20389;-65
2021/11/22 12:30:46;;;;;;;1.30;0.38;;;6.60;99.90;;;;;;5013465;28;20556;-66
2021/11/22 12:33:21;;;;;;;1.90;0.13;;;6.60;99.90;;;;;;5020888;28;20092;-66
2021/11/22 12:35:48;;;;;;;3.05;0.30;;;6.60;99.90;;;;;;5029323;28;20120;-66
2021/11/22 12:38:21;;;;;;;3.35;0.40;;;6.60;99.90;;;;;;5011760;28;20470;-66
2021/11/22 12:40:52;;;;;;;4.78;0.50;;;6.70;99.90;;;;;;5024285;28;20045;-66
2021/11/22 12:43:37;;;;;;;5.55;0.80;;;6.70;99.90;;;;;;5016150;28;20037;-66
2021/11/22 12:46:04;;;;;;;3.13;0.38;;;6.70;99.90;;;;;;5030513;28;20057;-66
2021/11/22 12:48:32;;;;;;;2.80;0.52;;;6.70;99.90;;;;;;5020107;28;20601;-66
2021/11/22 12:51:01;;;;;;;1.25;0.20;;;6.70;99.90;;;;;;5009509;28;20373;-66
2021/11/22 12:53:27;;;;;;;2.92;0.40;;;6.70;99.90;;;;;;5004103;28;20056;-66
2021/11/22 12:55:55;;;;;;;3.08;0.25;;;6.70;99.90;;;;;;5021847;28;20049;-66
2021/11/22 12:58:39;;;;;;;4.70;0.47;;;6.70;99.90;;;;;;5009640;28;20183;-66
2021/11/22 13:01:06;;;;;;;2.15;0.40;;;6.70;99.90;;;;;;5028265;28;20120;-66
2021/11/22 13:03:33;;;;;;;1.92;0.30;;;6.70;99.90;;;;;;5024928;28;20076;-66
2021/11/22 13:06:02;;;;;;;2.75;0.22;;;6.70;99.90;;;;;;5029191;28;20117;-66
2021/11/22 13:08:33;;;;;;;2.08;0.57;;;6.70;99.90;;;;;;5022496;28;20050;-66
2021/11/22 13:11:06;;;;;;;2.67;0.30;;;6.70;99.90;;;;;;5029175;28;20052;-66